Time;durP1;ratioP1;P1;durP2;ratioP2;P2;SDS_P1;SDS_P2;PMS_P1;PMS_P2;Temp;Humidity;BMP_temperature;BMP_pressure;BME280_temperature;BME280_humidity;BME280_pressure;Samples;Min_cycle;Max_cycle;Signal;HPM_P1;HPM_P2
2022/11/14 00:01:08;;;;;;;8.63;4.15;;;6.80;99.90;;;;;;20570469;28;20336;-38
2022/11/14 00:11:09;;;;;;;7.63;3.80;;;6.70;99.90;;;;;;20590406;28;20092;-38
2022/11/14 00:21:10;;;;;;;7.25;3.80;;;6.70;99.90;;;;;;20599316;28;20129;-38
2022/11/14 00:31:11;;;;;;;10.52;4.82;;;6.70;99.90;;;;;;20601102;28;20065;-38
2022/11/14 00:41:12;;;;;;;9.75;5.22;;;6.70;99.90;;;;;;20598876;28;20522;-38
2022/11/14 00:51:13;;;;;;;7.75;4.05;;;6.70;99.90;;;;;;20611599;28;21040;-38
2022/11/14 01:01:14;;;;;;;9.10;4.78;;;6.60;99.90;;;;;;20598054;28;20144;-38
2022/11/14 01:11:18;;;;;;;7.20;4.30;;;6.40;99.90;;;;;;20598876;28;20528;-38
2022/11/14 01:21:19;;;;;;;9.20;5.40;;;6.30;99.90;;;;;;20595227;28;20133;-38
2022/11/14 01:31:23;;;;;;;10.90;5.40;;;6.30;99.90;;;;;;20598521;28;20403;-38
2022/11/14 01:41:24;;;;;;;13.07;5.80;;;6.20;99.90;;;;;;20605332;28;20077;-38
2022/11/14 01:51:44;;;;;;;9.95;6.15;;;6.20;99.90;;;;;;20602427;28;20255;-38
2022/11/14 02:01:48;;;;;;;8.70;5.25;;;6.10;99.90;;;;;;20598608;28;21226;-38
2022/11/14 02:11:50;;;;;;;17.60;7.68;;;6.00;99.90;;;;;;20607817;28;20129;-38
2022/11/14 02:21:51;;;;;;;7.88;5.25;;;5.90;99.90;;;;;;20605630;28;20123;-38
2022/11/14 02:31:52;;;;;;;12.90;7.18;;;5.70;99.90;;;;;;20609578;28;20176;-38
2022/11/14 02:41:54;;;;;;;18.35;9.07;;;5.50;99.90;;;;;;20603210;28;20112;-38
2022/11/14 02:51:55;;;;;;;11.75;6.63;;;5.50;99.90;;;;;;20599556;28;20133;-38
2022/11/14 03:01:56;;;;;;;13.75;8.65;;;5.60;99.90;;;;;;20594200;28;20229;-38
2022/11/14 03:11:57;;;;;;;15.77;8.00;;;5.40;99.90;;;;;;20590621;28;20092;-38
2022/11/14 03:21:58;;;;;;;17.70;9.32;;;5.40;99.90;;;;;;20576211;28;20100;-38
2022/11/14 03:31:59;;;;;;;15.65;9.43;;;5.20;99.90;;;;;;20597974;28;20050;-38
2022/11/14 03:42:00;;;;;;;18.65;9.48;;;5.10;99.90;;;;;;20596612;28;20402;-38
2022/11/14 03:52:01;;;;;;;24.33;12.43;;;5.00;99.90;;;;;;20598939;28;20455;-38
2022/11/14 04:02:02;;;;;;;21.98;9.90;;;5.00;99.90;;;;;;20602530;28;20671;-38
2022/11/14 04:12:03;;;;;;;14.13;9.30;;;4.90;99.90;;;;;;20591798;28;20621;-38
2022/11/14 04:22:05;;;;;;;16.08;9.68;;;4.90;99.90;;;;;;20608156;28;20479;-38
2022/11/14 04:32:06;;;;;;;15.80;10.45;;;4.80;99.90;;;;;;20599177;28;20181;-38
2022/11/14 04:42:07;;;;;;;21.27;10.20;;;4.80;99.90;;;;;;20604854;28;20135;-38
2022/11/14 04:52:08;;;;;;;17.95;9.00;;;4.80;99.90;;;;;;20592381;28;20899;-38
2022/11/14 05:02:09;;;;;;;16.27;10.38;;;4.80;99.90;;;;;;20612002;28;20076;-38
2022/11/14 05:12:10;;;;;;;15.98;9.48;;;4.70;99.90;;;;;;20593462;28;20088;-38
2022/11/14 05:22:11;;;;;;;19.10;9.13;;;4.60;99.90;;;;;;20608329;28;20041;-38
2022/11/14 05:32:12;;;;;;;13.10;8.70;;;4.60;99.90;;;;;;20587542;28;20049;-38
2022/11/14 05:42:13;;;;;;;19.95;11.18;;;4.60;99.90;;;;;;20609244;28;20077;-38
2022/11/14 05:52:14;;;;;;;16.27;8.23;;;4.50;99.90;;;;;;20625027;28;20236;-38
2022/11/14 06:02:15;;;;;;;20.48;9.60;;;4.30;99.90;;;;;;20599496;28;20042;-38
2022/11/14 06:12:16;;;;;;;15.55;10.20;;;4.40;99.90;;;;;;20610562;28;20180;-38
2022/11/14 06:22:17;;;;;;;16.05;10.15;;;4.20;99.90;;;;;;20607812;28;20156;-38
2022/11/14 06:32:18;;;;;;;15.05;8.65;;;4.20;99.90;;;;;;20599056;28;20053;-38
2022/11/14 06:42:19;;;;;;;16.20;9.45;;;4.10;99.90;;;;;;20599494;28;20076;-38
2022/11/14 06:52:21;;;;;;;23.20;10.48;;;4.10;99.90;;;;;;20580169;28;20046;-38
2022/11/14 07:02:22;;;;;;;15.93;7.50;;;4.10;99.90;;;;;;20596606;28;20125;-38
2022/11/14 07:12:23;;;;;;;14.10;7.95;;;4.10;99.90;;;;;;20594461;28;20152;-38
2022/11/14 07:22:24;;;;;;;15.80;8.70;;;4.10;99.90;;;;;;20581275;28;20046;-38
2022/11/14 07:32:25;;;;;;;13.18;8.68;;;4.20;99.90;;;;;;20593227;28;20101;-38
2022/11/14 07:42:28;;;;;;;11.50;7.68;;;4.20;99.90;;;;;;20602274;28;20087;-38
2022/11/14 07:52:30;;;;;;;10.90;7.03;;;4.30;99.90;;;;;;20642216;28;20481;-38
2022/11/14 08:02:31;;;;;;;19.17;8.60;;;4.40;99.90;;;;;;20643948;28;20155;-38
2022/11/14 08:12:32;;;;;;;9.38;6.20;;;4.50;99.90;;;;;;20626792;28;20483;-38
2022/11/14 08:22:33;;;;;;;15.05;9.30;;;4.70;99.90;;;;;;20633855;28;20129;-38
2022/11/14 08:32:34;;;;;;;11.65;6.22;;;5.00;99.90;;;;;;20657824;28;20513;-38
2022/11/14 08:42:35;;;;;;;10.05;7.03;;;5.30;99.90;;;;;;20643566;28;20513;-38
2022/11/14 08:52:36;;;;;;;12.00;5.95;;;5.70;99.90;;;;;;20657032;28;20116;-38
2022/11/14 09:02:38;;;;;;;10.27;6.20;;;6.00;99.90;;;;;;20656936;28;20086;-38
2022/11/14 09:12:39;;;;;;;11.77;5.68;;;6.30;99.90;;;;;;20639984;28;20133;-38
2022/11/14 09:22:40;;;;;;;8.25;4.25;;;6.70;99.90;;;;;;20654599;28;20050;-38
2022/11/14 09:32:41;;;;;;;11.52;5.18;;;7.00;99.90;;;;;;20646519;28;20046;-38
2022/11/14 09:43:07;;;;;;;8.02;4.32;;;7.20;99.90;;;;;;20626136;28;20520;-38
2022/11/14 09:53:18;;;;;;;10.93;4.63;;;7.60;99.90;;;;;;20661921;28;22385;-38
2022/11/14 10:03:26;;;;;;;13.48;4.20;;;7.80;99.90;;;;;;20658717;28;20085;-38
2022/11/14 10:13:45;;;;;;;7.13;3.45;;;8.10;99.90;;;;;;20658108;28;20505;-38
2022/11/14 10:24:17;;;;;;;6.70;4.22;;;8.30;99.90;;;;;;20644424;28;20867;-38
2022/11/14 10:34:46;;;;;;;8.40;3.40;;;8.70;99.90;;;;;;20640009;28;20082;-38
2022/11/14 10:45:08;;;;;;;8.70;4.10;;;9.20;99.90;;;;;;20621861;28;21809;-38
2022/11/14 10:55:18;;;;;;;8.18;4.63;;;9.70;99.90;;;;;;20659658;28;20250;-38
2022/11/14 11:05:23;;;;;;;6.88;2.78;;;10.60;99.90;;;;;;20637226;28;20038;-38
2022/11/14 11:15:31;;;;;;;3.83;2.90;;;11.40;99.90;;;;;;20645911;28;20490;-38
2022/11/14 11:25:33;;;;;;;6.13;3.30;;;12.20;99.90;;;;;;20621054;28;20523;-38
2022/11/14 11:35:35;;;;;;;3.80;2.05;;;12.50;99.90;;;;;;20652360;28;20304;-38
2022/11/14 11:45:37;;;;;;;6.47;2.90;;;12.00;99.90;;;;;;20656244;28;20042;-39
2022/11/14 11:55:48;;;;;;;5.07;2.88;;;12.60;99.90;;;;;;20639562;28;20133;-37
2022/11/14 12:06:12;;;;;;;7.63;2.80;;;13.00;99.90;;;;;;20633816;28;20639;-37
2022/11/14 12:16:29;;;;;;;7.78;3.60;;;13.40;99.90;;;;;;20629427;28;20132;-37
2022/11/14 12:27:02;;;;;;;5.75;3.42;;;13.00;99.90;;;;;;20654503;28;20433;-38
2022/11/14 12:37:15;;;;;;;6.40;3.55;;;12.80;99.90;;;;;;20626406;28;21831;-38
2022/11/14 12:47:19;;;;;;;8.02;3.90;;;12.90;99.90;;;;;;20663062;28;20053;-38
2022/11/14 12:57:47;;;;;;;7.30;4.07;;;12.40;99.90;;;;;;20625558;28;20128;-38
2022/11/14 13:07:48;;;;;;;;;;;12.10;99.90;;;;;;20639565;28;20906;-38
2022/11/14 13:28:48;;;;;;;13.13;6.32;;;12.40;99.90;;;;;;20640104;28;20396;-38
2022/11/14 13:39:10;;;;;;;14.37;8.70;;;11.40;99.90;;;;;;20636793;28;20897;-38
2022/11/14 13:49:52;;;;;;;12.00;7.03;;;10.50;99.90;;;;;;20635828;28;20085;-38
2022/11/14 14:00:05;;;;;;;18.35;10.30;;;10.10;99.90;;;;;;20627862;28;21670;-38
2022/11/14 14:10:28;;;;;;;16.95;7.95;;;9.80;99.90;;;;;;20628149;28;20109;-38
2022/11/14 14:20:32;;;;;;;13.43;8.40;;;9.80;99.90;;;;;;20624499;28;20053;-38
2022/11/14 14:30:33;;;;;;;19.88;11.10;;;9.50;99.90;;;;;;20648221;28;20108;-38
2022/11/14 14:40:37;;;;;;;17.25;10.45;;;9.50;99.90;;;;;;20615857;28;20082;-38
2022/11/14 14:50:48;;;;;;;16.27;9.30;;;9.70;99.90;;;;;;20629237;28;20098;-38
2022/11/14 15:00:55;;;;;;;20.67;11.15;;;9.40;99.90;;;;;;20612707;28;20690;-38
2022/11/14 15:10:58;;;;;;;15.17;8.57;;;9.10;99.90;;;;;;20612994;28;20503;-38
2022/11/14 15:21:07;;;;;;;18.65;10.20;;;8.90;99.90;;;;;;20609318;28;20080;-38
2022/11/14 15:31:19;;;;;;;24.15;11.68;;;8.70;99.90;;;;;;20629058;28;20089;-38
2022/11/14 15:41:22;;;;;;;16.38;10.55;;;8.40;99.90;;;;;;20611819;28;20070;-38
2022/11/14 15:51:50;;;;;;;18.05;10.52;;;8.30;99.90;;;;;;20605411;28;20563;-37
2022/11/14 16:01:56;;;;;;;22.83;12.13;;;8.10;99.90;;;;;;20609704;28;20839;-38
2022/11/14 16:11:57;;;;;;;14.15;9.73;;;8.00;99.90;;;;;;20629886;28;20132;-38
2022/11/14 16:22:01;;;;;;;21.33;10.90;;;7.90;99.90;;;;;;20628950;28;20030;-38
2022/11/14 16:32:02;;;;;;;11.82;8.02;;;7.80;99.90;;;;;;20634250;28;20046;-38
2022/11/14 16:42:04;;;;;;;18.33;10.32;;;7.80;99.90;;;;;;20630811;28;20285;-38
2022/11/14 16:52:07;;;;;;;17.65;9.75;;;7.60;99.90;;;;;;20643601;28;20082;-38
2022/11/14 17:02:14;;;;;;;18.58;9.50;;;7.70;99.90;;;;;;20654920;28;20034;-37
2022/11/14 17:12:15;;;;;;;16.92;9.85;;;7.70;99.90;;;;;;20651677;28;20041;-38
2022/11/14 17:22:18;;;;;;;15.27;8.43;;;7.50;99.90;;;;;;20649297;28;20045;-38
2022/11/14 17:32:19;;;;;;;18.42;10.00;;;7.50;99.90;;;;;;20645843;28;20038;-38
2022/11/14 17:42:20;;;;;;;17.27;10.73;;;7.40;99.90;;;;;;20638337;28;20042;-38
2022/11/14 17:52:21;;;;;;;24.40;9.88;;;7.40;99.90;;;;;;20636623;28;20053;-38
2022/11/14 18:02:22;;;;;;;17.10;9.95;;;7.20;99.90;;;;;;20626660;28;20041;-38
2022/11/14 18:12:23;;;;;;;14.95;8.80;;;7.20;99.90;;;;;;20620819;28;20065;-38
2022/11/14 18:22:26;;;;;;;20.73;10.32;;;7.20;99.90;;;;;;20618961;28;21502;-38
2022/11/14 18:32:27;;;;;;;21.50;8.77;;;7.20;99.90;;;;;;20618487;28;20069;-38
2022/11/14 18:42:28;;;;;;;13.93;8.20;;;7.10;99.90;;;;;;20638723;28;20069;-38
2022/11/14 18:52:29;;;;;;;20.73;10.07;;;7.00;99.90;;;;;;20620691;28;20046;-38
2022/11/14 19:02:30;;;;;;;17.63;8.63;;;6.90;99.90;;;;;;20619969;28;20035;-38
2022/11/14 19:12:31;;;;;;;31.42;12.90;;;6.80;99.90;;;;;;20627018;28;20302;-38
2022/11/14 19:22:32;;;;;;;14.82;8.48;;;6.70;99.90;;;;;;20615750;28;20030;-38
2022/11/14 19:32:33;;;;;;;11.23;7.05;;;6.70;99.90;;;;;;20642788;28;20490;-38
2022/11/14 19:42:34;;;;;;;10.68;6.95;;;6.60;99.90;;;;;;20632557;28;20163;-38
2022/11/14 19:52:35;;;;;;;11.05;6.40;;;6.60;99.90;;;;;;20651269;28;20133;-37
2022/11/14 20:02:39;;;;;;;11.40;5.72;;;6.60;99.90;;;;;;20637699;28;20042;-38
2022/11/14 20:12:40;;;;;;;12.02;6.85;;;6.70;99.90;;;;;;20646368;28;20041;-38
2022/11/14 20:22:41;;;;;;;13.80;8.05;;;6.80;99.90;;;;;;20651040;28;20283;-38
2022/11/14 20:32:42;;;;;;;14.35;8.35;;;6.80;99.90;;;;;;20650075;28;21378;-39
2022/11/14 20:42:47;;;;;;;22.58;9.13;;;6.70;99.90;;;;;;20649917;28;20046;-38
2022/11/14 20:52:48;;;;;;;15.40;7.40;;;6.60;99.90;;;;;;20647005;28;20891;-38
2022/11/14 21:02:49;;;;;;;15.88;9.07;;;6.70;99.90;;;;;;20621921;28;20232;-37
2022/11/14 21:13:54;;;;;;;10.68;6.05;;;6.80;99.90;;;;;;20636068;28;20579;-37
2022/11/14 21:23:10;;;;;;;17.33;8.57;;;6.70;99.90;;;;;;20624257;28;20120;-38
2022/11/14 21:33:11;;;;;;;23.80;11.70;;;6.70;99.90;;;;;;20631893;28;20074;-37
2022/11/14 21:43:13;;;;;;;16.23;8.15;;;6.70;99.90;;;;;;20630027;28;20053;-38
2022/11/14 21:53:14;;;;;;;13.77;7.30;;;6.70;99.90;;;;;;20610340;28;20537;-38
2022/11/14 22:13:35;;;;;;;15.30;7.47;;;6.90;99.90;;;;;;20614371;28;20037;-38
2022/11/14 22:23:38;;;;;;;12.23;9.30;;;6.90;99.90;;;;;;20639659;28;20064;-38
2022/11/14 22:33:42;;;;;;;17.23;8.57;;;6.90;99.90;;;;;;20642611;28;20042;-38
2022/11/14 22:43:43;;;;;;;17.83;8.23;;;6.80;99.90;;;;;;20622955;28;20782;-38
2022/11/14 22:53:47;;;;;;;14.55;9.32;;;6.90;99.90;;;;;;20630068;28;21821;-38
2022/11/14 23:04:02;;;;;;;13.10;8.65;;;6.90;99.90;;;;;;20615477;28;20128;-38
2022/11/14 23:14:03;;;;;;;15.70;9.88;;;6.90;99.90;;;;;;20635211;28;20054;-38
2022/11/14 23:24:09;;;;;;;22.10;9.57;;;6.90;99.90;;;;;;20620674;28;20524;-38
2022/11/14 23:34:10;;;;;;;17.67;9.32;;;6.90;99.90;;;;;;20617272;28;20129;-38
2022/11/14 23:44:11;;;;;;;26.50;11.93;;;7.00;99.90;;;;;;20632428;28;20046;-38
2022/11/14 23:54:12;;;;;;;22.30;14.70;;;7.10;99.90;;;;;;20631770;28;20477;-38
